Time;durP1;ratioP1;P1;durP2;ratioP2;P2;SDS_P1;SDS_P2;PMS_P1;PMS_P2;Temp;Humidity;BMP_temperature;BMP_pressure;BME280_temperature;BME280_humidity;BME280_pressure;Samples;Min_cycle;Max_cycle;Signal;HPM_P1;HPM_P2
2023/11/21 00:03:15;;;;;;;1999.90;999.90;;;;;;;15.09;70.85;100931.03;10415405;28;20057;-65
2023/11/21 00:08:18;;;;;;;1999.90;999.90;;;;;;;15.13;68.73;100923.75;10381443;28;20081;-65
2023/11/21 00:13:21;;;;;;;1999.90;999.90;;;;;;;15.27;68.76;100931.47;10414986;28;20477;-65
2023/11/21 00:18:23;;;;;;;1999.90;999.90;;;;;;;14.49;71.21;100925.69;10415026;28;20476;-64
2023/11/21 00:23:26;;;;;;;1999.90;999.90;;;;;;;15.18;70.05;100929.50;10380933;28;20520;-64
2023/11/21 00:28:28;;;;;;;1999.90;999.90;;;;;;;15.08;68.75;100934.66;10414735;28;20435;-64
2023/11/21 00:33:30;;;;;;;1999.90;999.90;;;;;;;15.20;69.85;100935.53;10414507;28;20499;-65
2023/11/21 00:38:33;;;;;;;1999.90;999.90;;;;;;;15.21;67.88;100938.06;10414679;28;20107;-64
2023/11/21 00:43:35;;;;;;;1999.90;999.90;;;;;;;14.77;69.96;100942.16;10414414;28;20056;-65
2023/11/21 00:48:38;;;;;;;1999.90;999.90;;;;;;;14.39;73.87;100942.25;10414562;28;20136;-64
2023/11/21 00:53:40;;;;;;;1999.90;999.90;;;;;;;15.10;69.78;100955.66;10414077;28;20428;-65
2023/11/21 00:58:46;;;;;;;1999.90;999.90;;;;;;;14.98;70.87;100952.13;10414475;28;20057;-64
2023/11/21 01:03:48;;;;;;;1999.90;999.90;;;;;;;15.51;68.10;100960.44;10414186;28;20053;-65
2023/11/21 01:08:51;;;;;;;1999.90;999.90;;;;;;;15.30;68.57;100965.53;10396570;28;20053;-65
2023/11/21 01:13:53;;;;;;;1999.90;999.90;;;;;;;15.54;67.28;100970.75;10413875;28;20526;-64
2023/11/21 01:18:55;;;;;;;1999.90;999.90;;;;;;;15.47;67.71;100981.91;10413852;28;20049;-65
2023/11/21 01:23:58;;;;;;;1999.90;999.90;;;;;;;15.04;68.46;100991.19;10420400;28;20049;-65
2023/11/21 01:29:00;;;;;;;1999.90;999.90;;;;;;;14.82;72.32;101000.66;10420900;28;20500;-64
2023/11/21 01:34:03;;;;;;;1999.90;999.90;;;;;;;15.24;68.05;101008.19;10420897;28;20053;-64
2023/11/21 01:39:08;;;;;;;1999.90;999.90;;;;;;;16.07;65.31;101009.91;10420784;28;20057;-64
2023/11/21 01:44:11;;;;;;;1999.90;999.90;;;;;;;15.11;69.13;101002.13;10420438;28;20542;-64
2023/11/21 01:49:14;;;;;;;1999.90;999.90;;;;;;;14.95;69.56;101007.69;10420101;28;20420;-64
2023/11/21 01:54:20;;;;;;;1999.90;999.90;;;;;;;15.68;66.62;101005.81;10420003;28;20050;-64
2023/11/21 01:59:23;;;;;;;1999.90;999.90;;;;;;;15.56;66.11;100997.88;10420008;28;20058;-65
2023/11/21 02:04:25;;;;;;;1999.90;999.90;;;;;;;15.16;66.67;101000.00;10402062;28;20477;-64
2023/11/21 02:09:30;;;;;;;1999.90;999.90;;;;;;;15.50;66.29;101006.25;10385678;28;20505;-64
2023/11/21 02:14:32;;;;;;;1999.90;999.90;;;;;;;15.09;66.87;101004.88;10401923;28;20133;-65
2023/11/21 02:19:34;;;;;;;1999.90;999.90;;;;;;;15.28;65.78;101008.81;10419028;28;20088;-64
2023/11/21 02:24:37;;;;;;;1999.90;999.90;;;;;;;14.92;66.26;101021.09;10418644;28;20511;-65
2023/11/21 02:29:39;;;;;;;1999.90;999.90;;;;;;;14.98;66.88;101024.13;10418638;28;20128;-65
2023/11/21 02:34:43;;;;;;;1999.90;999.90;;;;;;;15.24;65.91;101030.13;10417272;28;20132;-64
2023/11/21 02:39:45;;;;;;;1999.90;999.90;;;;;;;15.28;65.90;101028.13;10418259;28;20080;-65
2023/11/21 02:44:48;;;;;;;1999.90;999.90;;;;;;;15.21;66.44;101033.00;10418314;28;20052;-65
2023/11/21 02:49:52;;;;;;;1999.90;999.90;;;;;;;14.82;67.90;101034.09;10400636;28;20055;-64
2023/11/21 02:54:54;;;;;;;1999.90;999.90;;;;;;;14.90;67.74;101031.75;10417479;28;20049;-64
2023/11/21 02:59:57;;;;;;;1999.90;999.90;;;;;;;15.36;66.60;101049.47;10417483;28;20408;-65
2023/11/21 03:05:00;;;;;;;1999.90;999.90;;;;;;;15.32;65.52;101045.41;10417270;28;20049;-64
2023/11/21 03:10:04;;;;;;;1999.90;999.90;;;;;;;15.42;66.34;101035.84;10417253;28;20046;-65
2023/11/21 03:15:07;;;;;;;1999.90;999.90;;;;;;;15.11;69.25;101037.25;10399390;28;20053;-64
2023/11/21 03:20:10;;;;;;;1999.90;999.90;;;;;;;15.20;67.26;101044.50;10416598;28;20049;-64
2023/11/21 03:25:15;;;;;;;1999.90;999.90;;;;;;;15.50;67.05;101035.28;10416301;28;20050;-64
2023/11/21 03:30:18;;;;;;;1999.90;999.90;;;;;;;15.28;68.07;101041.31;10398998;28;20147;-64
2023/11/21 03:35:21;;;;;;;1999.90;999.90;;;;;;;14.30;69.61;101059.63;10416271;28;20041;-65
2023/11/21 03:40:23;;;;;;;1999.90;999.90;;;;;;;15.17;68.36;101052.63;10416031;28;20057;-64
2023/11/21 03:45:25;;;;;;;1999.90;999.90;;;;;;;15.54;66.48;101057.84;10415701;28;20046;-64
2023/11/21 03:50:31;;;;;;;1999.90;999.90;;;;;;;14.72;69.36;101054.97;10415672;28;20152;-64
2023/11/21 03:55:33;;;;;;;1999.90;999.90;;;;;;;15.14;66.43;101058.13;10398066;28;20060;-64
2023/11/21 04:00:36;;;;;;;1999.90;999.90;;;;;;;14.75;66.11;101061.84;10415377;28;20461;-64
2023/11/21 04:05:38;;;;;;;1999.90;999.90;;;;;;;14.47;66.72;101075.13;10415283;28;20060;-65
2023/11/21 04:10:41;;;;;;;1999.90;999.90;;;;;;;14.75;66.24;101078.50;10415367;28;20049;-65
2023/11/21 04:15:44;;;;;;;1999.90;999.90;;;;;;;14.58;67.48;101086.72;10415011;28;20053;-65
2023/11/21 04:20:48;;;;;;;1999.90;999.90;;;;;;;14.34;67.44;101094.50;10397203;28;20404;-64
2023/11/21 04:25:50;;;;;;;1999.90;999.90;;;;;;;15.19;65.75;101105.28;10415201;28;20050;-64
2023/11/21 04:30:53;;;;;;;1999.90;999.90;;;;;;;15.07;66.28;101109.63;10397174;28;20054;-64
2023/11/21 04:35:55;;;;;;;1999.90;999.90;;;;;;;14.78;69.75;101101.16;10381038;28;20445;-64
2023/11/21 04:40:57;;;;;;;1999.90;999.90;;;;;;;13.95;68.27;101112.88;10414487;28;20053;-64
2023/11/21 04:46:04;;;;;;;1999.90;999.90;;;;;;;14.64;69.46;101116.16;10413383;28;20559;-64
2023/11/21 04:51:06;;;;;;;1999.90;999.90;;;;;;;14.87;69.17;101124.22;10414515;28;20132;-65
2023/11/21 04:56:09;;;;;;;1999.90;999.90;;;;;;;15.01;68.26;101134.66;10399386;28;20478;-64
2023/11/21 05:01:11;;;;;;;1999.90;999.90;;;;;;;15.19;67.94;101140.41;10422112;28;20408;-64
2023/11/21 05:06:14;;;;;;;1999.90;999.90;;;;;;;14.71;68.98;101145.56;10421946;28;20049;-64
2023/11/21 05:11:26;;;;;;;1999.90;999.90;;;;;;;15.59;67.57;101137.50;10421651;28;20469;-64
2023/11/21 05:16:29;;;;;;;1999.90;999.90;;;;;;;15.16;68.88;101142.41;10404048;28;20045;-64
2023/11/21 05:21:32;;;;;;;1999.90;999.90;;;;;;;14.86;69.46;101159.44;10421200;28;20100;-64
2023/11/21 05:26:34;;;;;;;1999.90;999.90;;;;;;;15.27;68.83;101158.31;10421027;28;20075;-64
2023/11/21 05:31:37;;;;;;;1999.90;999.90;;;;;;;15.31;68.17;101172.13;10403641;28;20064;-65
2023/11/21 05:36:41;;;;;;;1999.90;999.90;;;;;;;15.29;68.71;101176.69;10420781;28;20045;-65
2023/11/21 05:41:43;;;;;;;1999.90;999.90;;;;;;;14.91;71.87;101182.84;10420557;28;20132;-64
2023/11/21 05:46:50;;;;;;;1999.90;999.90;;;;;;;15.07;69.84;101190.53;10420596;28;20045;-64
2023/11/21 05:51:54;;;;;;;1999.90;999.90;;;;;;;15.58;68.52;101188.63;10402831;28;20053;-64
2023/11/21 05:56:56;;;;;;;1999.90;999.90;;;;;;;14.92;70.84;101195.09;10419904;28;20073;-64
2023/11/21 06:01:58;;;;;;;1999.90;999.90;;;;;;;15.70;67.74;101202.72;10419861;28;20061;-65
2023/11/21 06:07:01;;;;;;;1999.90;999.90;;;;;;;15.91;66.27;101213.53;10419317;28;20098;-64
2023/11/21 06:12:04;;;;;;;1999.90;999.90;;;;;;;15.82;67.33;101219.50;10419564;28;20072;-65
2023/11/21 06:17:06;;;;;;;1999.90;999.90;;;;;;;15.80;67.88;101218.75;10417862;28;20476;-64
2023/11/21 06:22:09;;;;;;;1999.90;999.90;;;;;;;15.38;68.12;101221.72;10418993;28;20063;-65
2023/11/21 06:27:11;;;;;;;1999.90;999.90;;;;;;;14.98;70.59;101228.94;10418752;28;20045;-65
2023/11/21 06:32:16;;;;;;;1999.90;999.90;;;;;;;15.93;66.51;101237.19;10418502;28;20508;-64
2023/11/21 06:37:20;;;;;;;1999.90;999.90;;;;;;;16.02;65.67;101239.19;10418636;28;20600;-64
2023/11/21 06:42:23;;;;;;;1999.90;999.90;;;;;;;16.12;65.38;101248.09;10418368;28;20073;-65
2023/11/21 06:47:27;;;;;;;1999.90;999.90;;;;;;;15.61;67.36;101246.44;10400606;28;20042;-64
2023/11/21 06:52:30;;;;;;;1999.90;999.90;;;;;;;16.04;66.11;101252.25;10416809;28;20073;-64
2023/11/21 06:57:32;;;;;;;1999.90;999.90;;;;;;;15.32;68.42;101260.88;10416360;28;20489;-64
2023/11/21 07:02:35;;;;;;;1999.90;999.90;;;;;;;15.77;66.59;101267.34;10417418;28;20065;-64
2023/11/21 07:07:38;;;;;;;1999.90;999.90;;;;;;;15.56;68.98;101272.31;10417437;28;20045;-65
2023/11/21 07:12:41;;;;;;;1999.90;999.90;;;;;;;15.26;69.50;101270.06;10416970;28;20571;-65
2023/11/21 07:17:43;;;;;;;1999.90;999.90;;;;;;;14.97;70.89;101280.81;10416204;28;20050;-64
2023/11/21 07:22:46;;;;;;;1999.90;999.90;;;;;;;15.18;70.23;101296.09;10416637;28;20054;-64
2023/11/21 07:27:49;;;;;;;1999.90;999.90;;;;;;;15.28;69.44;101306.88;10416354;28;20385;-64
2023/11/21 07:32:51;;;;;;;1999.90;999.90;;;;;;;16.39;65.32;101320.16;10416233;28;20481;-64
2023/11/21 07:37:54;;;;;;;1999.90;999.90;;;;;;;15.87;67.37;101319.47;10416129;28;20048;-64
2023/11/21 07:42:57;;;;;;;1999.90;999.90;;;;;;;15.71;68.42;101339.03;10415894;28;20060;-64
2023/11/21 07:48:00;;;;;;;1999.90;999.90;;;;;;;15.54;69.76;101337.56;10416066;28;20129;-64
2023/11/21 07:53:05;;;;;;;1999.90;999.90;;;;;;;15.72;69.56;101346.00;10415565;28;20504;-64
2023/11/21 07:58:08;;;;;;;1999.90;999.90;;;;;;;16.08;68.31;101348.81;10415614;28;20103;-65
2023/11/21 08:03:11;;;;;;;1999.90;999.90;;;;;;;15.80;67.60;101345.47;10415383;28;20045;-64
2023/11/21 08:08:15;;;;;;;1999.90;999.90;;;;;;;15.78;67.76;101353.53;10415497;28;20132;-65
2023/11/21 08:13:17;;;;;;;1999.90;999.90;;;;;;;16.08;67.44;101354.94;10397761;28;20412;-65
2023/11/21 08:18:19;;;;;;;1999.90;999.90;;;;;;;16.27;67.03;101365.03;10414928;28;20073;-65
2023/11/21 08:23:25;;;;;;;1999.90;999.90;;;;;;;15.89;68.14;101387.09;10414784;28;20412;-64
2023/11/21 08:28:28;;;;;;;1999.90;999.90;;;;;;;16.35;66.67;101389.06;10397859;28;20107;-64
2023/11/21 08:33:30;;;;;;;1999.90;999.90;;;;;;;16.35;67.72;101398.81;10423409;28;20077;-64
2023/11/21 08:38:33;;;;;;;1999.90;999.90;;;;;;;16.78;66.08;101410.66;10422905;28;20483;-64
2023/11/21 08:43:39;;;;;;;1999.90;999.90;;;;;;;16.29;67.87;101420.38;10422830;28;20412;-64
2023/11/21 08:48:43;;;;;;;1999.90;999.90;;;;;;;16.44;67.62;101432.50;10421520;28;20484;-65
2023/11/21 08:53:46;;;;;;;1999.90;999.90;;;;;;;16.76;67.24;101423.16;10422371;28;20128;-64
2023/11/21 08:58:50;;;;;;;1999.90;999.90;;;;;;;16.55;68.68;101428.25;10422412;28;20053;-64
2023/11/21 09:03:52;;;;;;;1999.90;999.90;;;;;;;16.65;67.37;101432.72;10422133;28;20076;-65
2023/11/21 09:08:55;;;;;;;1999.90;999.90;;;;;;;16.71;67.27;101426.16;10422200;28;20103;-64
2023/11/21 09:13:57;;;;;;;1999.90;999.90;;;;;;;16.67;66.48;101438.75;10421612;28;20049;-65
2023/11/21 09:19:00;;;;;;;1999.90;999.90;;;;;;;16.71;68.96;101457.91;10421453;28;20045;-65
2023/11/21 09:24:04;;;;;;;1999.90;999.90;;;;;;;16.80;68.84;101451.94;10420907;28;20050;-65
2023/11/21 09:29:08;;;;;;;1999.90;999.90;;;;;;;17.06;67.58;101459.75;10421089;28;20392;-65
2023/11/21 09:34:11;;;;;;;1999.90;999.90;;;;;;;16.14;70.52;101472.53;10420842;28;20413;-65
2023/11/21 09:39:14;;;;;;;1999.90;999.90;;;;;;;16.45;70.71;101483.56;10435058;22;20057;-78
2023/11/21 09:44:26;;;;;;;1999.90;999.90;;;;;;;17.01;68.81;101483.06;10420099;28;20058;-78
2023/11/21 09:49:33;;;;;;;1999.90;999.90;;;;;;;16.58;69.88;101494.94;10403040;28;20133;-78
2023/11/21 09:54:37;;;;;;;1999.90;999.90;;;;;;;16.90;69.52;101495.28;10387257;28;20102;-78
2023/11/21 09:59:39;;;;;;;1999.90;999.90;;;;;;;16.75;68.50;101504.31;10420009;28;20077;-78
2023/11/21 10:04:41;;;;;;;1999.90;999.90;;;;;;;17.33;67.79;101512.44;10402050;28;20055;-78
2023/11/21 10:09:44;;;;;;;1999.90;999.90;;;;;;;17.04;69.24;101526.00;10402017;28;20161;-78
2023/11/21 10:14:49;;;;;;;1999.90;999.90;;;;;;;17.39;68.03;101521.72;10419701;28;20049;-78
2023/11/21 10:19:53;;;;;;;1999.90;999.90;;;;;;;16.92;69.04;101545.44;10401718;28;20530;-78
2023/11/21 10:24:55;;;;;;;1999.90;999.90;;;;;;;16.83;69.84;101554.00;10418942;28;20100;-78
2023/11/21 10:29:58;;;;;;;1999.90;999.90;;;;;;;17.16;68.65;101549.88;10419008;28;20136;-78
2023/11/21 10:35:06;;;;;;;1999.90;999.90;;;;;;;16.89;70.44;101548.28;10400886;28;20485;-78
2023/11/21 10:40:11;;;;;;;1999.90;999.90;;;;;;;17.07;69.73;101532.88;10401597;28;20523;-78
2023/11/21 10:45:15;;;;;;;1999.90;999.90;;;;;;;17.30;70.17;101549.72;10384862;28;20115;-78
2023/11/21 10:50:19;;;;;;;1999.90;999.90;;;;;;;17.94;68.69;101557.28;10417808;28;20049;-78
2023/11/21 10:55:22;;;;;;;1999.90;999.90;;;;;;;17.40;68.66;101563.09;10399324;28;20224;-78
2023/11/21 11:00:25;;;;;;;1999.90;999.90;;;;;;;17.46;68.89;101573.25;10417437;28;20492;-78
2023/11/21 11:05:29;;;;;;;1999.90;999.90;;;;;;;17.75;68.38;101559.63;10400086;28;20069;-78
2023/11/21 11:10:32;;;;;;;1999.90;999.90;;;;;;;17.73;69.21;101557.09;10399778;28;20077;-78
2023/11/21 11:15:35;;;;;;;1999.90;999.90;;;;;;;17.56;69.46;101560.16;10416859;28;20049;-78
2023/11/21 11:20:38;;;;;;;1999.90;999.90;;;;;;;17.77;69.36;101577.09;10399484;28;20045;-78
2023/11/21 11:26:07;;;;;;;1999.90;999.90;;;;;;;17.36;69.59;101594.25;10399139;28;20050;-78
2023/11/21 11:31:26;;;;;;;1999.90;999.90;;;;;;;17.77;69.53;101598.28;10399205;28;20054;-78
2023/11/21 11:36:48;;;;;;;1999.90;999.90;;;;;;;17.26;70.66;101598.53;10398893;28;20115;-77
2023/11/21 11:41:51;;;;;;;1999.90;999.90;;;;;;;17.67;68.66;101618.47;10382486;28;20055;-78
2023/11/21 11:46:53;;;;;;;1999.90;999.90;;;;;;;17.37;68.71;101622.41;10398276;28;20059;-77
2023/11/21 11:52:34;;;;;;;1999.90;999.90;;;;;;;16.94;72.47;101632.59;10415799;28;20512;-78
2023/11/21 11:57:38;;;;;;;1999.90;999.90;;;;;;;17.03;71.59;101630.16;10414569;28;20103;-78
2023/11/21 12:02:41;;;;;;;1999.90;999.90;;;;;;;17.51;69.02;101645.22;10398085;28;20510;-78
2023/11/21 12:07:54;;;;;;;1999.90;999.90;;;;;;;17.17;71.21;101652.13;10397568;28;20512;-77
2023/11/21 12:13:17;;;;;;;1999.90;999.90;;;;;;;17.26;71.21;101646.16;10381541;28;20053;-78
2023/11/21 12:18:19;;;;;;;1999.90;999.90;;;;;;;16.48;74.97;101655.16;10397563;28;20400;-77
2023/11/21 12:23:22;;;;;;;1999.90;999.90;;;;;;;17.61;70.56;101655.97;10397570;28;20518;-77
2023/11/21 12:28:24;;;;;;;1999.90;999.90;;;;;;;17.55;70.31;101661.72;10414971;28;20156;-77
2023/11/21 12:33:29;;;;;;;1999.90;999.90;;;;;;;17.83;69.46;101669.31;10413682;28;20404;-77
2023/11/21 12:38:37;;;;;;;1999.90;999.90;;;;;;;17.81;69.39;101673.06;10414371;28;20488;-77
2023/11/21 12:43:40;;;;;;;1999.90;999.90;;;;;;;18.29;67.69;101672.16;10413720;28;20133;-77
2023/11/21 12:48:43;;;;;;;1999.90;999.90;;;;;;;17.93;68.90;101682.75;10413438;28;20149;-78
2023/11/21 12:53:47;;;;;;;1999.90;999.90;;;;;;;17.41;70.48;101694.50;10414421;28;20056;-78
2023/11/21 12:58:51;;;;;;;1999.90;999.90;;;;;;;18.01;67.94;101690.16;10414407;28;20124;-78
2023/11/21 13:03:54;;;;;;;1999.90;999.90;;;;;;;17.73;69.36;101694.78;10414176;28;20496;-77
2023/11/21 13:08:57;;;;;;;1999.90;999.90;;;;;;;17.18;72.16;101712.00;10380672;28;20088;-77
2023/11/21 13:14:00;;;;;;;1999.90;999.90;;;;;;;17.46;71.05;101706.44;10380557;28;20439;-77
2023/11/21 13:19:03;;;;;;;1999.90;999.90;;;;;;;17.26;71.52;101707.91;10402146;28;20108;-77
2023/11/21 13:24:05;;;;;;;1999.90;999.90;;;;;;;17.15;71.24;101704.31;10421334;28;20087;-77
2023/11/21 13:29:08;;;;;;;1999.90;999.90;;;;;;;17.11;70.49;101713.41;10403682;28;20404;-78
2023/11/21 13:34:14;;;;;;;1999.90;999.90;;;;;;;16.64;73.90;101713.09;10421133;28;20065;-77
2023/11/21 13:39:19;;;;;;;1999.90;999.90;;;;;;;17.41;70.62;101718.31;10403653;28;20081;-77
2023/11/21 13:44:34;;;;;;;1999.90;999.90;;;;;;;16.88;71.41;101723.81;10403412;28;20053;-77
2023/11/21 13:49:40;;;;;;;1999.90;999.90;;;;;;;17.35;68.98;101737.28;10419372;28;20049;-77
2023/11/21 13:54:43;;;;;;;1999.90;999.90;;;;;;;17.17;69.39;101744.75;10420126;28;20053;-77
2023/11/21 13:59:45;;;;;;;1999.90;999.90;;;;;;;17.43;68.80;101753.47;10402497;28;20129;-77
2023/11/21 14:04:54;;;;;;;1999.90;999.90;;;;;;;17.44;68.88;101766.59;10420105;28;20049;-77
2023/11/21 14:09:58;;;;;;;1999.90;999.90;;;;;;;17.33;69.59;101773.59;10419771;28;20053;-77
2023/11/21 14:15:03;;;;;;;1999.90;999.90;;;;;;;17.31;68.73;101778.16;10401932;28;20129;-78
2023/11/21 14:20:07;;;;;;;1999.90;999.90;;;;;;;18.19;65.78;101780.69;10418224;28;20053;-77
2023/11/21 14:25:12;;;;;;;1999.90;999.90;;;;;;;17.86;67.02;101778.69;10419027;28;20052;-77
2023/11/21 14:30:19;;;;;;;1999.90;999.90;;;;;;;17.40;69.17;101798.69;10419064;28;20053;-77
2023/11/21 14:35:21;;;;;;;1999.90;999.90;;;;;;;17.29;70.20;101809.19;10401676;28;20595;-77
2023/11/21 14:40:24;;;;;;;1999.90;999.90;;;;;;;16.56;72.42;101826.44;10418322;28;20484;-77
2023/11/21 14:45:28;;;;;;;1999.90;999.90;;;;;;;16.94;70.41;101839.75;10400826;28;20372;-77
2023/11/21 14:51:15;;;;;;;1999.90;999.90;;;;;;;16.94;68.75;101852.16;10400778;28;20484;-77
2023/11/21 14:56:07;;;;;;;1999.90;999.90;;;;;;;16.10;71.70;101854.06;10417559;28;20096;-77
2023/11/21 15:01:10;;;;;;;1999.90;999.90;;;;;;;16.16;73.38;101851.03;10417590;28;20076;-77
2023/11/21 15:06:30;;;;;;;1999.90;999.90;;;;;;;16.04;72.08;101868.53;10417500;28;20053;-77
2023/11/21 15:11:32;;;;;;;1999.90;999.90;;;;;;;16.76;70.39;101886.78;10417266;28;20659;-77
2023/11/21 15:16:49;;;;;;;1999.90;999.90;;;;;;;16.23;72.34;101897.25;10399661;28;20052;-77
2023/11/21 15:21:52;;;;;;;1999.90;999.90;;;;;;;16.28;70.21;101902.25;10417178;28;20046;-77
2023/11/21 15:26:54;;;;;;;1999.90;999.90;;;;;;;16.68;69.99;101918.19;10415548;28;20399;-77
2023/11/21 15:31:57;;;;;;;1999.90;999.90;;;;;;;15.47;72.69;101929.25;10416384;28;20049;-77
2023/11/21 15:37:00;;;;;;;1999.90;999.90;;;;;;;15.77;71.91;101937.97;10415960;28;20103;-76
2023/11/21 15:42:03;;;;;;;1999.90;999.90;;;;;;;15.36;72.98;101949.19;10398227;28;20059;-77
2023/11/21 15:47:08;;;;;;;1999.90;999.90;;;;;;;15.38;71.14;101962.28;10398823;28;20512;-77
2023/11/21 15:52:11;;;;;;;1999.90;999.90;;;;;;;15.70;69.06;101970.06;10415657;28;20061;-77
2023/11/21 15:57:14;;;;;;;1999.90;999.90;;;;;;;16.04;68.08;101981.25;10415555;28;20052;-77
2023/11/21 16:02:17;;;;;;;1999.90;999.90;;;;;;;15.40;68.48;101987.66;10415261;28;20103;-77
2023/11/21 16:07:19;;;;;;;1999.90;999.90;;;;;;;15.41;69.57;101997.25;10397866;28;20052;-76
2023/11/21 16:12:21;;;;;;;1999.90;999.90;;;;;;;15.66;68.74;102006.38;10415301;28;20056;-77
2023/11/21 16:17:26;;;;;;;1999.90;999.90;;;;;;;15.27;69.05;102020.97;10414966;28;20053;-77
2023/11/21 16:22:28;;;;;;;1999.90;999.90;;;;;;;15.50;68.57;102018.75;10415164;28;20049;-77
2023/11/21 16:27:33;;;;;;;1999.90;999.90;;;;;;;15.44;66.97;102035.81;10414819;28;20099;-77
2023/11/21 16:32:36;;;;;;;1999.90;999.90;;;;;;;15.21;66.18;102055.59;10397108;28;20061;-77
2023/11/21 16:37:39;;;;;;;1999.90;999.90;;;;;;;15.08;67.54;102060.75;10397006;28;20539;-76
2023/11/21 16:42:41;;;;;;;1999.90;999.90;;;;;;;15.37;66.78;102076.72;10397165;28;20060;-76
2023/11/21 16:47:44;;;;;;;1999.90;999.90;;;;;;;14.54;68.30;102091.78;10414512;28;20477;-76
2023/11/21 16:52:46;;;;;;;1999.90;999.90;;;;;;;15.05;67.29;102096.03;10400505;28;20519;-76
2023/11/21 16:57:50;;;;;;;1999.90;999.90;;;;;;;14.58;68.46;102114.44;10404981;28;20054;-76
2023/11/21 17:02:53;;;;;;;1999.90;999.90;;;;;;;15.29;66.26;102129.06;10422271;28;20056;-76
2023/11/21 17:07:55;;;;;;;1999.90;999.90;;;;;;;15.28;65.84;102149.34;10422042;28;20056;-76
2023/11/21 17:12:58;;;;;;;1999.90;999.90;;;;;;;15.13;66.35;102158.94;10422083;28;20045;-76
2023/11/21 17:18:02;;;;;;;1999.90;999.90;;;;;;;15.31;66.74;102167.59;10421712;28;20046;-76
2023/11/21 17:23:08;;;;;;;1999.90;999.90;;;;;;;14.83;66.24;102187.81;10421678;28;20050;-76
2023/11/21 17:28:11;;;;;;;1999.90;999.90;;;;;;;14.75;66.81;102200.56;10404282;28;20390;-76
2023/11/21 17:33:17;;;;;;;1999.90;999.90;;;;;;;14.70;65.84;102203.44;10387805;28;20045;-77
2023/11/21 17:38:20;;;;;;;1999.90;999.90;;;;;;;14.32;66.63;102206.22;10420845;28;20137;-77
2023/11/21 17:43:22;;;;;;;1999.90;999.90;;;;;;;14.18;65.21;102208.72;10403278;28;20049;-77
2023/11/21 17:48:29;;;;;;;1999.90;999.90;;;;;;;14.11;66.42;102213.44;10420638;28;20042;-76
2023/11/21 17:53:32;;;;;;;1999.90;999.90;;;;;;;14.54;64.78;102227.06;10420296;28;20060;-76
2023/11/21 17:58:35;;;;;;;1999.90;999.90;;;;;;;14.00;64.35;102224.47;10420341;28;20091;-77
2023/11/21 18:03:37;;;;;;;1999.90;999.90;;;;;;;13.64;65.22;102242.91;10419387;28;20053;-76
2023/11/21 18:08:41;;;;;;;1999.90;999.90;;;;;;;13.69;66.14;102244.41;10402249;28;20084;-77
2023/11/21 18:13:44;;;;;;;1999.90;999.90;;;;;;;13.54;67.49;102251.22;10419727;28;20129;-76
2023/11/21 18:18:46;;;;;;;1999.90;999.90;;;;;;;14.35;64.49;102252.66;10419224;28;20129;-77
2023/11/21 18:23:49;;;;;;;1999.90;999.90;;;;;;;14.44;64.38;102250.41;10401831;28;20059;-76
2023/11/21 18:28:51;;;;;;;1999.90;999.90;;;;;;;14.22;65.17;102257.66;10418877;28;20148;-76
2023/11/21 18:33:54;;;;;;;1999.90;999.90;;;;;;;14.61;64.25;102277.72;10401477;28;20124;-77
2023/11/21 18:38:56;;;;;;;1999.90;999.90;;;;;;;13.73;66.84;102284.59;10417047;28;20058;-76
2023/11/21 18:43:59;;;;;;;1999.90;999.90;;;;;;;13.67;67.84;102293.63;10418232;28;20504;-76
2023/11/21 18:49:02;;;;;;;1999.90;999.90;;;;;;;12.85;69.95;102290.28;10401046;28;20124;-76
2023/11/21 18:54:07;;;;;;;1999.90;999.90;;;;;;;14.45;66.11;102299.53;10418307;28;20128;-76
2023/11/21 18:59:10;;;;;;;1999.90;999.90;;;;;;;14.26;66.96;102309.28;10416502;28;20045;-77
2023/11/21 19:04:14;;;;;;;1999.90;999.90;;;;;;;13.86;67.61;102305.94;10417432;28;20061;-76
2023/11/21 19:09:16;;;;;;;1999.90;999.90;;;;;;;13.31;66.60;102318.00;10400003;28;20049;-76
2023/11/21 19:14:18;;;;;;;1999.90;999.90;;;;;;;13.58;66.92;102328.25;10398769;28;20378;-76
2023/11/21 19:19:21;;;;;;;1999.90;999.90;;;;;;;13.87;67.08;102342.72;10416839;28;20049;-77
2023/11/21 19:24:23;;;;;;;1999.90;999.90;;;;;;;13.73;65.86;102348.63;10416766;28;20420;-76
2023/11/21 19:29:25;;;;;;;1999.90;999.90;;;;;;;13.57;64.47;102360.78;10416630;28;20041;-77
2023/11/21 19:34:29;;;;;;;1999.90;999.90;;;;;;;13.66;64.11;102365.59;10416633;28;20054;-77
2023/11/21 19:39:32;;;;;;;1999.90;999.90;;;;;;;13.86;63.39;102369.97;10414715;28;20053;-77
2023/11/21 19:44:36;;;;;;;1999.90;999.90;;;;;;;13.27;64.26;102376.09;10398859;28;20136;-77
2023/11/21 19:49:39;;;;;;;1999.90;999.90;;;;;;;13.28;64.25;102385.69;10398848;28;20045;-77
2023/11/21 19:54:41;;;;;;;1999.90;999.90;;;;;;;13.36;63.83;102386.25;10398409;28;20056;-77
2023/11/21 19:59:45;;;;;;;1999.90;999.90;;;;;;;13.20;64.82;102391.31;10398159;28;20489;-77
2023/11/21 20:04:47;;;;;;;1999.90;999.90;;;;;;;12.88;66.24;102379.50;10415416;28;20498;-76
2023/11/21 20:09:49;;;;;;;1999.90;999.90;;;;;;;12.68;65.19;102394.34;10415414;28;20409;-77
2023/11/21 20:14:52;;;;;;;1999.90;999.90;;;;;;;12.97;64.32;102414.16;10415178;28;20405;-76
2023/11/21 20:19:54;;;;;;;1999.90;999.90;;;;;;;12.60;65.08;102423.53;10413849;28;20401;-76
2023/11/21 20:24:57;;;;;;;1999.90;999.90;;;;;;;12.80;64.58;102424.53;10415843;28;20611;-77
2023/11/21 20:29:59;;;;;;;1999.90;999.90;;;;;;;12.11;66.61;102443.00;10423688;28;20047;-76
2023/11/21 20:35:04;;;;;;;1999.90;999.90;;;;;;;12.39;65.39;102441.03;10405966;28;20053;-77
2023/11/21 20:40:08;;;;;;;1999.90;999.90;;;;;;;12.24;65.23;102437.22;10405622;28;20049;-76
2023/11/21 20:45:13;;;;;;;1999.90;999.90;;;;;;;12.27;66.24;102444.97;10405464;28;20514;-76
2023/11/21 20:50:17;;;;;;;1999.90;999.90;;;;;;;12.36;65.01;102454.28;10421808;28;20137;-76
2023/11/21 20:55:20;;;;;;;1999.90;999.90;;;;;;;12.23;65.28;102459.13;10422616;28;20056;-76
2023/11/21 21:00:25;;;;;;;1999.90;999.90;;;;;;;12.39;65.07;102467.28;10422491;28;20049;-76
2023/11/21 21:05:28;;;;;;;1999.90;999.90;;;;;;;12.39;65.12;102467.28;10422706;28;20053;-76
2023/11/21 21:10:30;;;;;;;1999.90;999.90;;;;;;;12.42;66.71;102469.81;10422146;28;20049;-76
2023/11/21 21:15:32;;;;;;;1999.90;999.90;;;;;;;11.58;66.21;102475.47;10404164;28;20560;-76
2023/11/21 21:20:36;;;;;;;1999.90;999.90;;;;;;;12.08;66.94;102480.72;10421928;28;20115;-76
2023/11/21 21:25:38;;;;;;;1999.90;999.90;;;;;;;11.70;65.31;102490.78;10421577;28;20111;-76
2023/11/21 21:30:41;;;;;;;1999.90;999.90;;;;;;;12.16;64.61;102512.78;10421378;28;20045;-76
2023/11/21 21:35:44;;;;;;;1999.90;999.90;;;;;;;11.92;63.78;102513.66;10420839;28;20161;-76
2023/11/21 21:40:46;;;;;;;1999.90;999.90;;;;;;;11.86;65.25;102523.44;10419819;28;20053;-76
2023/11/21 21:45:49;;;;;;;1999.90;999.90;;;;;;;11.80;64.74;102525.41;10403208;28;20077;-77
2023/11/21 21:50:51;;;;;;;1999.90;999.90;;;;;;;11.37;66.08;102521.66;10410752;22;20383;-78
2023/11/21 21:55:54;;;;;;;1999.90;999.90;;;;;;;11.58;63.97;102522.69;10403045;28;20047;-78
2023/11/21 22:00:57;;;;;;;1999.90;999.90;;;;;;;11.36;65.02;102538.28;10402617;28;20506;-78